SLOA4: Illinois River nr Siloam Springs AR

                                SHEF ID:       SLOA4     Illinois River South of Siloam S
STATION TYPE:

STAGE RIV-FLOW BAT-LOAD
ft cfs volt
Ccp-Rev Ccp-Rev Ccp-Rev
(America/Chicago)
04/26 00:00 5.77 1909 12.08
04/26 01:00 6.74 2641 12.06
04/26 02:00 7.47 3258 12.02
04/26 03:00 7.40 3197 12.01
04/26 04:00 7.12 2956 11.98
04/26 05:00 6.91 2780 11.98
04/26 06:00 7.02 2871 11.92
04/26 07:00 8.13 3872 11.91
04/26 08:00 9.55 5351 12.07
04/26 09:00 10.52 6468 13.12
04/26 10:00 11.20 7298 13.13
04/26 11:00 11.59 7825 12.96
04/26 12:00 11.71 8012 12.82
04/26 13:00 11.48 7655 12.82
04/26 14:00 10.93 6963 12.84
04/26 15:00 10.18 6069 12.83
04/26 16:00 9.48 5273 12.76
04/26 17:00 8.91 4658 12.67
04/26 18:00 8.50 4237 12.54
04/26 19:00 8.16 3901 12.53
04/26 20:00 7.90 3652 12.44
04/26 21:00 7.67 3438 12.28
04/26 22:00 7.49 3276 12.24
04/26 23:00 7.32 3127 12.22
Data processed at Mon 27Apr2026 04:18 GMT

NOTICE: If you are parsing this page

Please convert to using our Data API. Starting early 2026 we will be migrating to: https://water.usace.army.mil with modern pages rendered in JavaScript. When this migration completes you will no longer be able to scrape this page! CWMSDataAPI (CDA)

Timeseries IDs (TSIDs)

TSIDs used from left to right in the data table
SILO.Stage.Inst.1Hour.0.Ccp-Rev
SILO.Flow.Inst.1Hour.0.Ccp-Rev
SILO.Volt-Battery Load.Inst.1Hour.0.Ccp-Rev

                            

All information presented herein is the property of the government of the United States of America and may be revised or deleted at any time without prior notice. Dissemination of this information without the expressed written consent of the Public Affairs Office, Tulsa District U.S. Army Corps of Engineers is strictly prohibited. These data are gathered electronically and, as presented, have NOT undergone any form of quality control. These data are NOT guaranteed to be valid or correct.